createdAt,value
2023-08-26T00:00:22.867Z,12.73
2023-08-26T00:10:28.709Z,12.77
2023-08-26T00:20:33.230Z,13.77
2023-08-26T00:30:35.488Z,14.40
2023-08-26T00:40:37.928Z,12.65
2023-08-26T00:50:41.303Z,14.13
2023-08-26T01:00:49.308Z,11.85
2023-08-26T01:10:53.844Z,7.43
2023-08-26T01:20:58.917Z,5.75
2023-08-26T01:31:04.255Z,6.10
2023-08-26T01:41:07.318Z,4.30
2023-08-26T01:51:09.721Z,3.97
2023-08-26T02:01:14.261Z,3.78
2023-08-26T02:11:21.177Z,4.85
2023-08-26T02:21:27.975Z,5.18
2023-08-26T02:31:32.845Z,4.22
2023-08-26T02:41:37.538Z,5.47
2023-08-26T02:51:39.807Z,4.68
2023-08-26T03:01:43.958Z,5.80
2023-08-26T03:11:49.788Z,5.80
2023-08-26T03:21:52.143Z,6.13
2023-08-26T03:31:55.079Z,4.70
2023-08-26T03:41:57.321Z,4.78
2023-08-26T03:52:07.983Z,5.18
2023-08-26T04:02:10.522Z,5.43
2023-08-26T04:12:14.898Z,5.30
2023-08-26T04:22:17.128Z,5.57
2023-08-26T04:32:21.586Z,5.00
2023-08-26T04:42:29.298Z,4.85
2023-08-26T04:52:34.339Z,5.80
2023-08-26T05:02:36.861Z,5.22
2023-08-26T05:12:39.518Z,4.40
2023-08-26T05:22:44.218Z,5.65
2023-08-26T05:32:46.570Z,5.70
2023-08-26T05:42:49.200Z,6.22
2023-08-26T05:52:51.582Z,5.97
2023-08-26T06:02:55.601Z,5.78
2023-08-26T06:13:04.104Z,6.20
2023-08-26T06:23:09.493Z,6.70
2023-08-26T06:33:16.360Z,6.93
2023-08-26T06:43:19.026Z,6.50
2023-08-26T06:53:24.214Z,6.90
2023-08-26T07:03:28.699Z,7.15
2023-08-26T07:13:30.926Z,7.45
2023-08-26T07:23:33.618Z,7.00
2023-08-26T07:33:36.115Z,7.07
2023-08-26T07:43:40.878Z,7.22
2023-08-26T07:53:45.459Z,6.50
2023-08-26T08:03:53.154Z,7.00
2023-08-26T08:13:57.800Z,6.20
2023-08-26T08:24:03.305Z,6.55
2023-08-26T08:34:05.760Z,6.70
2023-08-26T08:44:14.833Z,6.25
2023-08-26T08:54:17.358Z,6.05
2023-08-26T09:04:19.606Z,4.72
2023-08-26T09:14:24.812Z,3.90
2023-08-26T09:24:27.115Z,3.88
2023-08-26T09:34:34.338Z,4.65
2023-08-26T09:44:38.685Z,3.85
2023-08-26T09:54:42.493Z,3.70
2023-08-26T10:04:50.016Z,4.15
2023-08-26T10:14:55.157Z,3.53
2023-08-26T10:24:57.504Z,2.92
2023-08-26T10:35:06.768Z,3.00
2023-08-26T10:45:18.476Z,3.78
2023-08-26T10:55:32.622Z,3.20
2023-08-26T11:05:43.440Z,3.15
2023-08-26T11:15:45.819Z,3.17
2023-08-26T11:25:50.283Z,3.95
2023-08-26T11:36:08.385Z,3.13
2023-08-26T11:46:12.509Z,2.55
2023-08-26T11:56:17.182Z,2.92
2023-08-26T12:06:20.693Z,2.53
2023-08-26T12:16:28.156Z,3.08
2023-08-26T12:26:33.895Z,2.63
2023-08-26T12:36:36.333Z,3.33
2023-08-26T12:46:40.393Z,3.08
2023-08-26T12:56:46.215Z,2.60
2023-08-26T13:06:48.629Z,2.40
2023-08-26T13:16:53.209Z,2.80
2023-08-26T13:26:58.762Z,2.58
2023-08-26T13:37:04.465Z,2.65
2023-08-26T13:47:09.096Z,2.75
2023-08-26T13:57:12.058Z,2.78
2023-08-26T14:07:18.981Z,2.90
2023-08-26T14:17:21.266Z,2.75
2023-08-26T14:27:26.082Z,3.00
2023-08-26T14:37:36.235Z,3.13
2023-08-26T14:47:41.108Z,3.28
2023-08-26T14:57:45.281Z,3.80
2023-08-26T15:07:50.707Z,3.67
2023-08-26T15:17:54.358Z,3.80
2023-08-26T15:27:59.482Z,4.10
2023-08-26T15:38:04.267Z,3.83
2023-08-26T15:48:10.563Z,3.97
2023-08-26T15:58:22.597Z,4.32
2023-08-26T16:08:30.491Z,7.60
2023-08-26T16:18:35.568Z,5.10
2023-08-26T16:28:39.125Z,4.75
2023-08-26T16:38:45.761Z,4.75
2023-08-26T16:48:53.434Z,5.20
2023-08-26T16:59:00.648Z,5.20
2023-08-26T17:09:07.000Z,4.07
2023-08-26T17:19:11.762Z,3.60
2023-08-26T17:29:16.214Z,4.60
2023-08-26T17:39:20.935Z,4.53
2023-08-26T17:49:28.545Z,4.82
2023-08-26T17:59:34.063Z,4.28
2023-08-26T18:09:42.301Z,4.40
2023-08-26T18:19:52.085Z,5.65
2023-08-26T18:29:59.531Z,5.10
2023-08-26T18:40:01.772Z,6.57
2023-08-26T18:50:07.812Z,5.25
2023-08-26T19:00:17.001Z,6.13
2023-08-26T19:10:19.556Z,5.70
2023-08-26T19:20:25.196Z,6.30
2023-08-26T19:30:29.877Z,5.47
2023-08-26T19:40:37.898Z,5.63
2023-08-26T19:50:42.028Z,6.03
2023-08-26T20:00:48.891Z,6.13
2023-08-26T20:10:53.482Z,6.30
2023-08-26T20:21:05.172Z,5.97
2023-08-26T20:31:12.365Z,6.05
2023-08-26T20:41:15.213Z,6.72
2023-08-26T20:51:18.081Z,7.03
2023-08-26T21:01:24.788Z,7.00
2023-08-26T21:11:30.955Z,8.20
2023-08-26T21:21:37.301Z,7.22
2023-08-26T21:31:47.269Z,7.20
2023-08-26T21:41:52.652Z,7.43
2023-08-26T21:51:56.247Z,8.20
2023-08-26T22:02:02.120Z,8.52
2023-08-26T22:12:09.420Z,9.15
2023-08-26T22:22:19.746Z,8.35
2023-08-26T22:32:28.802Z,9.02
2023-08-26T22:42:35.778Z,8.88
2023-08-26T22:52:41.003Z,8.60
2023-08-26T23:02:55.406Z,8.63
2023-08-26T23:13:00.913Z,7.40
2023-08-26T23:23:06.778Z,6.88
2023-08-26T23:33:11.569Z,8.25
2023-08-26T23:43:20.923Z,8.20
2023-08-26T23:53:23.239Z,8.60
